sensor_id;sensor_type;location;lat;lon;timestamp;P1;durP1;ratioP1;P2;durP2;ratioP2
14040;SDS011;7095;51.388;6.196;2024-03-02T00:02:10;4.07;;;1.40;;
14040;SDS011;7095;51.388;6.196;2024-03-02T00:04:38;10.63;;;1.73;;
14040;SDS011;7095;51.388;6.196;2024-03-02T00:07:07;3.63;;;1.33;;
14040;SDS011;7095;51.388;6.196;2024-03-02T00:09:36;12.10;;;2.20;;
14040;SDS011;7095;51.388;6.196;2024-03-02T00:12:06;3.47;;;1.47;;
14040;SDS011;7095;51.388;6.196;2024-03-02T00:14:35;3.00;;;1.30;;
14040;SDS011;7095;51.388;6.196;2024-03-02T00:17:04;2.90;;;1.13;;
14040;SDS011;7095;51.388;6.196;2024-03-02T00:19:33;4.50;;;1.13;;
14040;SDS011;7095;51.388;6.196;2024-03-02T00:22:06;4.37;;;1.50;;
14040;SDS011;7095;51.388;6.196;2024-03-02T00:24:36;1.80;;;1.47;;
14040;SDS011;7095;51.388;6.196;2024-03-02T00:27:06;3.20;;;1.00;;
14040;SDS011;7095;51.388;6.196;2024-03-02T00:29:38;3.13;;;1.27;;
14040;SDS011;7095;51.388;6.196;2024-03-02T00:32:10;3.53;;;1.57;;
14040;SDS011;7095;51.388;6.196;2024-03-02T00:34:41;3.87;;;1.20;;
14040;SDS011;7095;51.388;6.196;2024-03-02T00:37:10;1.57;;;1.23;;
14040;SDS011;7095;51.388;6.196;2024-03-02T00:39:39;5.17;;;1.50;;
14040;SDS011;7095;51.388;6.196;2024-03-02T00:42:11;2.53;;;1.07;;
14040;SDS011;7095;51.388;6.196;2024-03-02T00:44:40;7.50;;;1.73;;
14040;SDS011;7095;51.388;6.196;2024-03-02T00:47:09;4.67;;;1.57;;
14040;SDS011;7095;51.388;6.196;2024-03-02T00:49:38;3.27;;;1.37;;
14040;SDS011;7095;51.388;6.196;2024-03-02T00:52:07;4.00;;;1.10;;
14040;SDS011;7095;51.388;6.196;2024-03-02T00:54:37;2.60;;;1.60;;
14040;SDS011;7095;51.388;6.196;2024-03-02T00:57:07;5.37;;;1.30;;
14040;SDS011;7095;51.388;6.196;2024-03-02T00:59:40;3.20;;;1.27;;
14040;SDS011;7095;51.388;6.196;2024-03-02T01:02:09;3.20;;;1.13;;
14040;SDS011;7095;51.388;6.196;2024-03-02T01:04:38;1.80;;;1.10;;
14040;SDS011;7095;51.388;6.196;2024-03-02T01:07:06;5.43;;;1.40;;
14040;SDS011;7095;51.388;6.196;2024-03-02T01:09:35;3.43;;;1.20;;
14040;SDS011;7095;51.388;6.196;2024-03-02T01:12:04;3.00;;;1.50;;
14040;SDS011;7095;51.388;6.196;2024-03-02T01:14:34;3.50;;;1.50;;
14040;SDS011;7095;51.388;6.196;2024-03-02T01:17:03;4.80;;;1.20;;
14040;SDS011;7095;51.388;6.196;2024-03-02T01:19:32;4.53;;;1.43;;
14040;SDS011;7095;51.388;6.196;2024-03-02T01:22:00;4.30;;;1.37;;
14040;SDS011;7095;51.388;6.196;2024-03-02T01:24:30;2.93;;;1.13;;
14040;SDS011;7095;51.388;6.196;2024-03-02T01:26:58;3.97;;;1.33;;
14040;SDS011;7095;51.388;6.196;2024-03-02T01:29:27;2.53;;;1.03;;
14040;SDS011;7095;51.388;6.196;2024-03-02T01:31:57;5.27;;;1.90;;
14040;SDS011;7095;51.388;6.196;2024-03-02T01:34:26;2.20;;;1.50;;
14040;SDS011;7095;51.388;6.196;2024-03-02T01:36:55;3.90;;;1.50;;
14040;SDS011;7095;51.388;6.196;2024-03-02T01:39:23;3.20;;;1.10;;
14040;SDS011;7095;51.388;6.196;2024-03-02T01:41:52;2.93;;;1.30;;
14040;SDS011;7095;51.388;6.196;2024-03-02T01:44:21;2.40;;;1.83;;
14040;SDS011;7095;51.388;6.196;2024-03-02T01:46:50;1.97;;;0.67;;
14040;SDS011;7095;51.388;6.196;2024-03-02T01:49:20;1.03;;;0.50;;
14040;SDS011;7095;51.388;6.196;2024-03-02T01:51:49;1.70;;;0.60;;
14040;SDS011;7095;51.388;6.196;2024-03-02T01:54:18;2.73;;;1.10;;
14040;SDS011;7095;51.388;6.196;2024-03-02T01:56:46;0.63;;;0.63;;
14040;SDS011;7095;51.388;6.196;2024-03-02T01:59:15;2.20;;;1.30;;
14040;SDS011;7095;51.388;6.196;2024-03-02T02:01:44;1.50;;;0.50;;
14040;SDS011;7095;51.388;6.196;2024-03-02T02:04:13;4.83;;;0.90;;
14040;SDS011;7095;51.388;6.196;2024-03-02T02:06:44;0.60;;;0.40;;
14040;SDS011;7095;51.388;6.196;2024-03-02T02:09:12;2.70;;;0.40;;
14040;SDS011;7095;51.388;6.196;2024-03-02T02:11:41;0.70;;;0.30;;
14040;SDS011;7095;51.388;6.196;2024-03-02T02:14:10;2.47;;;0.60;;
14040;SDS011;7095;51.388;6.196;2024-03-02T02:16:40;0.93;;;0.40;;
14040;SDS011;7095;51.388;6.196;2024-03-02T02:19:09;0.60;;;0.30;;
14040;SDS011;7095;51.388;6.196;2024-03-02T02:21:39;2.70;;;0.90;;
14040;SDS011;7095;51.388;6.196;2024-03-02T02:24:10;0.33;;;0.33;;
14040;SDS011;7095;51.388;6.196;2024-03-02T02:26:40;0.70;;;0.50;;
14040;SDS011;7095;51.388;6.196;2024-03-02T02:29:08;1.17;;;0.50;;
14040;SDS011;7095;51.388;6.196;2024-03-02T02:31:37;0.87;;;0.40;;
14040;SDS011;7095;51.388;6.196;2024-03-02T02:34:06;0.40;;;0.30;;
14040;SDS011;7095;51.388;6.196;2024-03-02T02:36:36;3.83;;;0.60;;
14040;SDS011;7095;51.388;6.196;2024-03-02T02:39:09;2.23;;;0.53;;
14040;SDS011;7095;51.388;6.196;2024-03-02T02:41:41;0.50;;;0.30;;
14040;SDS011;7095;51.388;6.196;2024-03-02T02:44:10;1.43;;;0.30;;
14040;SDS011;7095;51.388;6.196;2024-03-02T02:46:39;0.20;;;0.20;;
14040;SDS011;7095;51.388;6.196;2024-03-02T02:49:08;0.40;;;0.40;;
14040;SDS011;7095;51.388;6.196;2024-03-02T02:51:37;0.40;;;0.20;;
14040;SDS011;7095;51.388;6.196;2024-03-02T02:54:05;1.60;;;0.43;;
14040;SDS011;7095;51.388;6.196;2024-03-02T02:56:35;1.03;;;0.70;;
14040;SDS011;7095;51.388;6.196;2024-03-02T02:59:04;0.60;;;0.60;;
14040;SDS011;7095;51.388;6.196;2024-03-02T03:01:33;1.33;;;0.60;;
14040;SDS011;7095;51.388;6.196;2024-03-02T03:04:02;3.00;;;0.53;;
14040;SDS011;7095;51.388;6.196;2024-03-02T03:06:30;3.03;;;0.50;;
14040;SDS011;7095;51.388;6.196;2024-03-02T03:08:59;1.20;;;0.43;;
14040;SDS011;7095;51.388;6.196;2024-03-02T03:11:28;0.80;;;0.43;;
14040;SDS011;7095;51.388;6.196;2024-03-02T03:13:58;1.83;;;0.27;;
14040;SDS011;7095;51.388;6.196;2024-03-02T03:16:28;1.27;;;0.40;;
14040;SDS011;7095;51.388;6.196;2024-03-02T03:18:57;2.97;;;0.40;;
14040;SDS011;7095;51.388;6.196;2024-03-02T03:21:26;1.43;;;0.33;;
14040;SDS011;7095;51.388;6.196;2024-03-02T03:23:55;0.63;;;0.30;;
14040;SDS011;7095;51.388;6.196;2024-03-02T03:26:23;1.90;;;0.40;;
14040;SDS011;7095;51.388;6.196;2024-03-02T03:28:52;2.17;;;0.43;;
14040;SDS011;7095;51.388;6.196;2024-03-02T03:31:22;4.87;;;0.67;;
14040;SDS011;7095;51.388;6.196;2024-03-02T03:33:50;0.90;;;0.30;;
14040;SDS011;7095;51.388;6.196;2024-03-02T03:36:21;0.07;;;0.07;;
14040;SDS011;7095;51.388;6.196;2024-03-02T03:38:50;2.33;;;0.90;;
14040;SDS011;7095;51.388;6.196;2024-03-02T03:41:18;1.03;;;0.50;;
14040;SDS011;7095;51.388;6.196;2024-03-02T03:43:47;0.90;;;0.53;;
14040;SDS011;7095;51.388;6.196;2024-03-02T03:46:15;1.30;;;0.33;;
14040;SDS011;7095;51.388;6.196;2024-03-02T03:48:46;1.60;;;0.50;;
14040;SDS011;7095;51.388;6.196;2024-03-02T03:51:14;0.83;;;0.20;;
14040;SDS011;7095;51.388;6.196;2024-03-02T03:53:45;0.20;;;0.10;;
14040;SDS011;7095;51.388;6.196;2024-03-02T03:56:15;0.57;;;0.20;;
14040;SDS011;7095;51.388;6.196;2024-03-02T03:58:43;0.10;;;0.10;;
14040;SDS011;7095;51.388;6.196;2024-03-02T04:01:12;0.87;;;0.27;;
14040;SDS011;7095;51.388;6.196;2024-03-02T04:03:41;0.87;;;0.27;;
14040;SDS011;7095;51.388;6.196;2024-03-02T04:06:11;0.90;;;0.40;;
14040;SDS011;7095;51.388;6.196;2024-03-02T04:08:41;0.20;;;0.20;;
14040;SDS011;7095;51.388;6.196;2024-03-02T04:11:10;0.63;;;0.40;;
14040;SDS011;7095;51.388;6.196;2024-03-02T04:13:39;1.50;;;0.47;;
14040;SDS011;7095;51.388;6.196;2024-03-02T04:16:07;3.80;;;0.80;;
14040;SDS011;7095;51.388;6.196;2024-03-02T04:18:36;1.03;;;0.33;;
14040;SDS011;7095;51.388;6.196;2024-03-02T04:21:05;0.20;;;0.20;;
14040;SDS011;7095;51.388;6.196;2024-03-02T04:23:35;1.53;;;0.47;;
14040;SDS011;7095;51.388;6.196;2024-03-02T04:26:04;0.50;;;0.40;;
14040;SDS011;7095;51.388;6.196;2024-03-02T04:28:32;0.53;;;0.17;;
14040;SDS011;7095;51.388;6.196;2024-03-02T04:31:07;1.23;;;0.40;;
14040;SDS011;7095;51.388;6.196;2024-03-02T04:33:35;5.00;;;0.77;;
14040;SDS011;7095;51.388;6.196;2024-03-02T04:36:05;1.47;;;0.53;;
14040;SDS011;7095;51.388;6.196;2024-03-02T04:38:36;2.37;;;0.40;;
14040;SDS011;7095;51.388;6.196;2024-03-02T04:41:06;0.93;;;0.20;;
14040;SDS011;7095;51.388;6.196;2024-03-02T04:43:35;0.80;;;0.27;;
14040;SDS011;7095;51.388;6.196;2024-03-02T04:46:04;0.33;;;0.30;;
14040;SDS011;7095;51.388;6.196;2024-03-02T04:48:33;1.70;;;0.23;;
14040;SDS011;7095;51.388;6.196;2024-03-02T04:51:03;2.67;;;0.73;;
14040;SDS011;7095;51.388;6.196;2024-03-02T04:53:32;0.80;;;0.40;;
14040;SDS011;7095;51.388;6.196;2024-03-02T04:56:02;0.67;;;0.50;;
14040;SDS011;7095;51.388;6.196;2024-03-02T04:59:00;0.60;;;0.47;;
14040;SDS011;7095;51.388;6.196;2024-03-02T05:01:28;0.97;;;0.50;;
14040;SDS011;7095;51.388;6.196;2024-03-02T05:03:57;1.13;;;0.60;;
14040;SDS011;7095;51.388;6.196;2024-03-02T05:06:26;2.13;;;0.57;;
14040;SDS011;7095;51.388;6.196;2024-03-02T05:08:55;1.23;;;0.93;;
14040;SDS011;7095;51.388;6.196;2024-03-02T05:11:26;1.00;;;0.70;;
14040;SDS011;7095;51.388;6.196;2024-03-02T05:14:15;4.00;;;0.93;;
14040;SDS011;7095;51.388;6.196;2024-03-02T05:16:44;1.47;;;0.60;;
14040;SDS011;7095;51.388;6.196;2024-03-02T05:19:12;3.40;;;0.70;;
14040;SDS011;7095;51.388;6.196;2024-03-02T05:21:41;1.53;;;0.93;;
14040;SDS011;7095;51.388;6.196;2024-03-02T05:24:10;2.17;;;0.90;;
14040;SDS011;7095;51.388;6.196;2024-03-02T05:26:40;1.47;;;0.97;;
14040;SDS011;7095;51.388;6.196;2024-03-02T05:29:10;1.50;;;0.73;;
14040;SDS011;7095;51.388;6.196;2024-03-02T05:31:39;2.23;;;0.80;;
14040;SDS011;7095;51.388;6.196;2024-03-02T05:34:07;3.37;;;0.97;;
14040;SDS011;7095;51.388;6.196;2024-03-02T05:36:36;2.33;;;0.60;;
14040;SDS011;7095;51.388;6.196;2024-03-02T05:39:08;1.40;;;0.70;;
14040;SDS011;7095;51.388;6.196;2024-03-02T05:41:45;1.03;;;0.80;;
14040;SDS011;7095;51.388;6.196;2024-03-02T05:44:13;1.20;;;0.73;;
14040;SDS011;7095;51.388;6.196;2024-03-02T05:46:42;4.60;;;0.90;;
14040;SDS011;7095;51.388;6.196;2024-03-02T05:49:11;1.40;;;0.77;;
14040;SDS011;7095;51.388;6.196;2024-03-02T05:51:39;2.00;;;0.70;;
14040;SDS011;7095;51.388;6.196;2024-03-02T05:54:08;1.20;;;0.67;;
14040;SDS011;7095;51.388;6.196;2024-03-02T05:56:36;1.37;;;0.70;;
14040;SDS011;7095;51.388;6.196;2024-03-02T05:59:06;3.03;;;0.63;;
14040;SDS011;7095;51.388;6.196;2024-03-02T06:01:40;0.90;;;0.90;;
14040;SDS011;7095;51.388;6.196;2024-03-02T06:04:09;4.77;;;0.80;;
14040;SDS011;7095;51.388;6.196;2024-03-02T06:06:38;4.13;;;0.83;;
14040;SDS011;7095;51.388;6.196;2024-03-02T06:09:07;1.77;;;0.67;;
14040;SDS011;7095;51.388;6.196;2024-03-02T06:11:39;0.87;;;0.87;;
14040;SDS011;7095;51.388;6.196;2024-03-02T06:14:10;1.67;;;0.70;;
14040;SDS011;7095;51.388;6.196;2024-03-02T06:16:38;1.40;;;0.70;;
14040;SDS011;7095;51.388;6.196;2024-03-02T06:19:07;1.93;;;0.83;;
14040;SDS011;7095;51.388;6.196;2024-03-02T06:21:35;0.60;;;0.50;;
14040;SDS011;7095;51.388;6.196;2024-03-02T06:24:04;1.33;;;0.57;;
14040;SDS011;7095;51.388;6.196;2024-03-02T06:26:33;1.67;;;0.40;;
14040;SDS011;7095;51.388;6.196;2024-03-02T06:29:03;1.17;;;0.77;;
14040;SDS011;7095;51.388;6.196;2024-03-02T06:31:33;4.70;;;0.70;;
14040;SDS011;7095;51.388;6.196;2024-03-02T06:34:02;0.83;;;0.80;;
14040;SDS011;7095;51.388;6.196;2024-03-02T06:36:31;2.77;;;1.00;;
14040;SDS011;7095;51.388;6.196;2024-03-02T06:39:00;2.53;;;0.50;;
14040;SDS011;7095;51.388;6.196;2024-03-02T06:41:29;6.23;;;0.83;;
14040;SDS011;7095;51.388;6.196;2024-03-02T06:43:58;2.13;;;0.63;;
14040;SDS011;7095;51.388;6.196;2024-03-02T06:46:27;1.50;;;0.40;;
14040;SDS011;7095;51.388;6.196;2024-03-02T06:48:57;3.07;;;0.83;;
14040;SDS011;7095;51.388;6.196;2024-03-02T06:51:26;2.10;;;0.67;;
14040;SDS011;7095;51.388;6.196;2024-03-02T06:53:55;3.10;;;0.67;;
14040;SDS011;7095;51.388;6.196;2024-03-02T06:56:23;0.83;;;0.40;;
14040;SDS011;7095;51.388;6.196;2024-03-02T06:58:52;3.77;;;0.80;;
14040;SDS011;7095;51.388;6.196;2024-03-02T07:01:21;3.57;;;0.50;;
14040;SDS011;7095;51.388;6.196;2024-03-02T07:03:53;2.00;;;0.67;;
14040;SDS011;7095;51.388;6.196;2024-03-02T07:06:24;0.70;;;0.70;;
14040;SDS011;7095;51.388;6.196;2024-03-02T07:08:53;2.57;;;0.60;;
14040;SDS011;7095;51.388;6.196;2024-03-02T07:11:23;1.90;;;0.70;;
14040;SDS011;7095;51.388;6.196;2024-03-02T07:13:52;0.77;;;0.63;;
14040;SDS011;7095;51.388;6.196;2024-03-02T07:16:26;2.33;;;0.50;;
14040;SDS011;7095;51.388;6.196;2024-03-02T07:19:00;1.33;;;0.40;;
14040;SDS011;7095;51.388;6.196;2024-03-02T07:21:33;0.80;;;0.23;;
14040;SDS011;7095;51.388;6.196;2024-03-02T07:24:04;1.60;;;0.47;;
14040;SDS011;7095;51.388;6.196;2024-03-02T07:26:36;0.90;;;0.50;;
14040;SDS011;7095;51.388;6.196;2024-03-02T07:29:08;0.30;;;0.30;;
14040;SDS011;7095;51.388;6.196;2024-03-02T07:31:36;1.17;;;0.70;;
14040;SDS011;7095;51.388;6.196;2024-03-02T07:34:05;0.90;;;0.60;;
14040;SDS011;7095;51.388;6.196;2024-03-02T07:36:35;1.73;;;0.60;;
14040;SDS011;7095;51.388;6.196;2024-03-02T07:39:06;1.77;;;0.70;;
14040;SDS011;7095;51.388;6.196;2024-03-02T07:41:35;2.57;;;0.93;;
14040;SDS011;7095;51.388;6.196;2024-03-02T07:44:04;2.80;;;0.90;;
14040;SDS011;7095;51.388;6.196;2024-03-02T07:46:32;1.93;;;0.50;;
14040;SDS011;7095;51.388;6.196;2024-03-02T07:49:01;3.67;;;0.80;;
14040;SDS011;7095;51.388;6.196;2024-03-02T07:51:30;1.30;;;0.80;;
14040;SDS011;7095;51.388;6.196;2024-03-02T07:53:59;1.27;;;0.73;;
14040;SDS011;7095;51.388;6.196;2024-03-02T07:56:28;5.30;;;0.90;;
14040;SDS011;7095;51.388;6.196;2024-03-02T07:58:57;1.47;;;0.50;;
14040;SDS011;7095;51.388;6.196;2024-03-02T08:01:28;1.43;;;0.50;;
14040;SDS011;7095;51.388;6.196;2024-03-02T08:03:57;3.10;;;0.77;;
14040;SDS011;7095;51.388;6.196;2024-03-02T08:06:27;2.97;;;0.40;;
14040;SDS011;7095;51.388;6.196;2024-03-02T08:08:56;1.63;;;0.37;;
14040;SDS011;7095;51.388;6.196;2024-03-02T08:11:26;1.57;;;0.60;;
14040;SDS011;7095;51.388;6.196;2024-03-02T08:13:55;1.73;;;0.67;;
14040;SDS011;7095;51.388;6.196;2024-03-02T08:16:24;0.63;;;0.40;;
14040;SDS011;7095;51.388;6.196;2024-03-02T08:18:53;4.03;;;0.70;;
14040;SDS011;7095;51.388;6.196;2024-03-02T08:21:24;1.03;;;0.47;;
14040;SDS011;7095;51.388;6.196;2024-03-02T08:23:57;1.70;;;0.70;;
14040;SDS011;7095;51.388;6.196;2024-03-02T08:26:28;1.13;;;1.00;;
14040;SDS011;7095;51.388;6.196;2024-03-02T08:28:58;2.97;;;0.80;;
14040;SDS011;7095;51.388;6.196;2024-03-02T08:31:28;2.33;;;0.73;;
14040;SDS011;7095;51.388;6.196;2024-03-02T08:33:57;3.97;;;1.03;;
14040;SDS011;7095;51.388;6.196;2024-03-02T08:36:26;2.57;;;0.40;;
14040;SDS011;7095;51.388;6.196;2024-03-02T08:38:54;3.03;;;0.70;;
14040;SDS011;7095;51.388;6.196;2024-03-02T08:41:23;1.63;;;0.37;;
14040;SDS011;7095;51.388;6.196;2024-03-02T08:43:53;3.20;;;0.60;;
14040;SDS011;7095;51.388;6.196;2024-03-02T08:46:22;1.23;;;0.60;;
14040;SDS011;7095;51.388;6.196;2024-03-02T08:48:51;2.70;;;0.93;;
14040;SDS011;7095;51.388;6.196;2024-03-02T08:51:20;3.03;;;0.80;;
14040;SDS011;7095;51.388;6.196;2024-03-02T08:53:49;2.20;;;0.50;;
14040;SDS011;7095;51.388;6.196;2024-03-02T08:56:18;2.43;;;0.57;;
14040;SDS011;7095;51.388;6.196;2024-03-02T08:58:47;1.97;;;0.67;;
14040;SDS011;7095;51.388;6.196;2024-03-02T09:01:18;1.63;;;0.43;;
14040;SDS011;7095;51.388;6.196;2024-03-02T09:03:47;3.10;;;0.80;;
14040;SDS011;7095;51.388;6.196;2024-03-02T09:06:19;3.70;;;0.97;;
14040;SDS011;7095;51.388;6.196;2024-03-02T09:08:48;2.37;;;0.97;;
14040;SDS011;7095;51.388;6.196;2024-03-02T09:11:18;4.50;;;0.60;;
14040;SDS011;7095;51.388;6.196;2024-03-02T09:13:47;2.07;;;0.47;;
14040;SDS011;7095;51.388;6.196;2024-03-02T09:16:20;2.80;;;0.77;;
14040;SDS011;7095;51.388;6.196;2024-03-02T09:18:49;2.43;;;0.70;;
14040;SDS011;7095;51.388;6.196;2024-03-02T09:21:20;3.43;;;0.77;;
14040;SDS011;7095;51.388;6.196;2024-03-02T09:23:50;3.03;;;0.90;;
14040;SDS011;7095;51.388;6.196;2024-03-02T09:26:21;6.27;;;0.90;;
14040;SDS011;7095;51.388;6.196;2024-03-02T09:28:52;2.03;;;0.60;;
14040;SDS011;7095;51.388;6.196;2024-03-02T09:31:22;1.20;;;0.50;;
14040;SDS011;7095;51.388;6.196;2024-03-02T09:33:53;3.20;;;0.80;;
14040;SDS011;7095;51.388;6.196;2024-03-02T09:36:25;1.93;;;0.97;;
14040;SDS011;7095;51.388;6.196;2024-03-02T09:38:55;3.63;;;0.60;;
14040;SDS011;7095;51.388;6.196;2024-03-02T09:41:24;2.77;;;0.80;;
14040;SDS011;7095;51.388;6.196;2024-03-02T09:43:54;4.80;;;1.07;;
14040;SDS011;7095;51.388;6.196;2024-03-02T09:46:26;3.63;;;0.70;;
14040;SDS011;7095;51.388;6.196;2024-03-02T09:48:54;3.83;;;0.93;;
14040;SDS011;7095;51.388;6.196;2024-03-02T09:51:23;3.50;;;1.00;;
14040;SDS011;7095;51.388;6.196;2024-03-02T09:53:52;2.03;;;1.00;;
14040;SDS011;7095;51.388;6.196;2024-03-02T09:56:29;4.40;;;0.77;;
14040;SDS011;7095;51.388;6.196;2024-03-02T09:58:57;2.93;;;0.93;;
14040;SDS011;7095;51.388;6.196;2024-03-02T10:01:27;4.50;;;1.37;;
14040;SDS011;7095;51.388;6.196;2024-03-02T10:03:57;6.73;;;1.27;;
14040;SDS011;7095;51.388;6.196;2024-03-02T10:06:28;2.83;;;0.87;;
14040;SDS011;7095;51.388;6.196;2024-03-02T10:08:57;3.63;;;0.83;;
14040;SDS011;7095;51.388;6.196;2024-03-02T10:11:31;2.53;;;1.10;;
14040;SDS011;7095;51.388;6.196;2024-03-02T10:14:40;1.93;;;0.80;;
14040;SDS011;7095;51.388;6.196;2024-03-02T10:17:36;3.03;;;0.67;;
14040;SDS011;7095;51.388;6.196;2024-03-02T10:20:21;4.87;;;1.53;;
14040;SDS011;7095;51.388;6.196;2024-03-02T10:22:51;2.77;;;0.70;;
14040;SDS011;7095;51.388;6.196;2024-03-02T10:25:30;3.13;;;1.13;;
14040;SDS011;7095;51.388;6.196;2024-03-02T10:28:13;3.30;;;1.00;;
14040;SDS011;7095;51.388;6.196;2024-03-02T10:30:43;2.53;;;1.00;;
14040;SDS011;7095;51.388;6.196;2024-03-02T10:33:17;5.03;;;1.43;;
14040;SDS011;7095;51.388;6.196;2024-03-02T10:35:47;3.43;;;1.40;;
14040;SDS011;7095;51.388;6.196;2024-03-02T10:38:17;1.13;;;0.70;;
14040;SDS011;7095;51.388;6.196;2024-03-02T10:40:46;3.10;;;0.87;;
14040;SDS011;7095;51.388;6.196;2024-03-02T10:43:15;2.57;;;1.00;;
14040;SDS011;7095;51.388;6.196;2024-03-02T10:45:45;2.77;;;1.00;;
14040;SDS011;7095;51.388;6.196;2024-03-02T10:48:22;3.07;;;1.10;;
14040;SDS011;7095;51.388;6.196;2024-03-02T10:50:54;4.43;;;1.40;;
14040;SDS011;7095;51.388;6.196;2024-03-02T10:53:24;2.17;;;1.03;;
14040;SDS011;7095;51.388;6.196;2024-03-02T10:55:56;4.17;;;1.27;;
14040;SDS011;7095;51.388;6.196;2024-03-02T10:58:31;3.73;;;1.30;;
14040;SDS011;7095;51.388;6.196;2024-03-02T11:01:02;2.23;;;0.90;;
14040;SDS011;7095;51.388;6.196;2024-03-02T11:03:35;3.67;;;1.00;;
14040;SDS011;7095;51.388;6.196;2024-03-02T11:06:05;3.10;;;1.03;;
14040;SDS011;7095;51.388;6.196;2024-03-02T11:08:38;3.53;;;1.00;;
14040;SDS011;7095;51.388;6.196;2024-03-02T11:11:10;4.97;;;1.27;;
14040;SDS011;7095;51.388;6.196;2024-03-02T11:13:47;3.07;;;0.93;;
14040;SDS011;7095;51.388;6.196;2024-03-02T11:16:21;3.27;;;1.23;;
14040;SDS011;7095;51.388;6.196;2024-03-02T11:19:04;6.03;;;1.27;;
14040;SDS011;7095;51.388;6.196;2024-03-02T11:21:35;4.20;;;1.73;;
14040;SDS011;7095;51.388;6.196;2024-03-02T11:27:04;4.00;;;1.33;;
14040;SDS011;7095;51.388;6.196;2024-03-02T11:32:22;2.60;;;0.80;;
14040;SDS011;7095;51.388;6.196;2024-03-02T11:34:53;4.90;;;0.97;;
14040;SDS011;7095;51.388;6.196;2024-03-02T11:37:22;3.80;;;1.10;;
14040;SDS011;7095;51.388;6.196;2024-03-02T11:39:53;3.47;;;0.80;;
14040;SDS011;7095;51.388;6.196;2024-03-02T11:42:22;3.47;;;1.63;;
14040;SDS011;7095;51.388;6.196;2024-03-02T11:44:51;3.57;;;1.10;;
14040;SDS011;7095;51.388;6.196;2024-03-02T11:47:19;5.23;;;1.43;;
14040;SDS011;7095;51.388;6.196;2024-03-02T11:49:49;4.13;;;1.20;;
14040;SDS011;7095;51.388;6.196;2024-03-02T11:52:20;3.27;;;0.97;;
14040;SDS011;7095;51.388;6.196;2024-03-02T11:54:51;4.37;;;1.47;;
14040;SDS011;7095;51.388;6.196;2024-03-02T11:57:21;7.00;;;1.07;;
14040;SDS011;7095;51.388;6.196;2024-03-02T11:59:50;2.83;;;1.23;;
14040;SDS011;7095;51.388;6.196;2024-03-02T12:02:20;3.70;;;0.93;;
14040;SDS011;7095;51.388;6.196;2024-03-02T12:04:49;5.23;;;0.70;;
14040;SDS011;7095;51.388;6.196;2024-03-02T12:07:23;4.37;;;1.10;;
14040;SDS011;7095;51.388;6.196;2024-03-02T12:09:59;3.23;;;0.80;;
14040;SDS011;7095;51.388;6.196;2024-03-02T12:12:30;2.37;;;0.80;;
14040;SDS011;7095;51.388;6.196;2024-03-02T12:14:58;4.03;;;1.00;;
14040;SDS011;7095;51.388;6.196;2024-03-02T12:17:28;3.60;;;1.27;;
14040;SDS011;7095;51.388;6.196;2024-03-02T12:19:57;4.90;;;1.30;;
14040;SDS011;7095;51.388;6.196;2024-03-02T12:22:27;5.10;;;1.30;;
14040;SDS011;7095;51.388;6.196;2024-03-02T12:24:57;5.07;;;1.00;;
14040;SDS011;7095;51.388;6.196;2024-03-02T12:27:26;4.63;;;1.17;;
14040;SDS011;7095;51.388;6.196;2024-03-02T12:29:54;4.90;;;1.10;;
14040;SDS011;7095;51.388;6.196;2024-03-02T12:32:23;3.40;;;0.90;;
14040;SDS011;7095;51.388;6.196;2024-03-02T12:34:55;5.53;;;1.23;;
14040;SDS011;7095;51.388;6.196;2024-03-02T12:37:25;4.90;;;1.20;;
14040;SDS011;7095;51.388;6.196;2024-03-02T12:39:56;4.17;;;1.00;;
14040;SDS011;7095;51.388;6.196;2024-03-02T12:42:25;3.00;;;0.90;;
14040;SDS011;7095;51.388;6.196;2024-03-02T12:44:54;3.33;;;1.00;;
14040;SDS011;7095;51.388;6.196;2024-03-02T12:47:23;2.13;;;1.00;;
14040;SDS011;7095;51.388;6.196;2024-03-02T12:49:52;3.93;;;0.97;;
14040;SDS011;7095;51.388;6.196;2024-03-02T12:52:21;9.17;;;1.03;;
14040;SDS011;7095;51.388;6.196;2024-03-02T12:54:51;2.93;;;1.07;;
14040;SDS011;7095;51.388;6.196;2024-03-02T12:57:27;2.40;;;0.90;;
14040;SDS011;7095;51.388;6.196;2024-03-02T12:59:57;2.60;;;0.77;;
14040;SDS011;7095;51.388;6.196;2024-03-02T13:02:27;3.03;;;1.10;;
14040;SDS011;7095;51.388;6.196;2024-03-02T13:04:57;3.67;;;1.20;;
14040;SDS011;7095;51.388;6.196;2024-03-02T13:07:27;5.93;;;1.57;;
14040;SDS011;7095;51.388;6.196;2024-03-02T13:09:57;5.60;;;1.00;;
14040;SDS011;7095;51.388;6.196;2024-03-02T13:12:30;3.63;;;1.23;;
14040;SDS011;7095;51.388;6.196;2024-03-02T13:15:00;4.53;;;1.33;;
14040;SDS011;7095;51.388;6.196;2024-03-02T13:17:30;3.33;;;1.37;;
14040;SDS011;7095;51.388;6.196;2024-03-02T13:20:05;5.07;;;1.43;;
14040;SDS011;7095;51.388;6.196;2024-03-02T13:22:38;4.70;;;0.90;;
14040;SDS011;7095;51.388;6.196;2024-03-02T13:25:07;1.77;;;0.87;;
14040;SDS011;7095;51.388;6.196;2024-03-02T13:27:41;6.00;;;1.20;;
14040;SDS011;7095;51.388;6.196;2024-03-02T13:30:12;5.37;;;0.97;;
14040;SDS011;7095;51.388;6.196;2024-03-02T13:32:41;12.40;;;2.50;;
14040;SDS011;7095;51.388;6.196;2024-03-02T13:35:11;3.77;;;0.90;;
14040;SDS011;7095;51.388;6.196;2024-03-02T13:37:41;4.50;;;1.03;;
14040;SDS011;7095;51.388;6.196;2024-03-02T13:40:09;4.40;;;1.40;;
14040;SDS011;7095;51.388;6.196;2024-03-02T13:42:45;3.80;;;1.03;;
14040;SDS011;7095;51.388;6.196;2024-03-02T13:45:14;6.07;;;1.60;;
14040;SDS011;7095;51.388;6.196;2024-03-02T13:47:44;3.60;;;0.97;;
14040;SDS011;7095;51.388;6.196;2024-03-02T13:50:13;3.37;;;1.10;;
14040;SDS011;7095;51.388;6.196;2024-03-02T13:52:42;2.37;;;1.00;;
14040;SDS011;7095;51.388;6.196;2024-03-02T13:55:11;3.17;;;1.30;;
14040;SDS011;7095;51.388;6.196;2024-03-02T13:57:40;1.87;;;1.10;;
14040;SDS011;7095;51.388;6.196;2024-03-02T14:00:11;4.43;;;1.10;;
14040;SDS011;7095;51.388;6.196;2024-03-02T14:02:41;2.80;;;1.13;;
14040;SDS011;7095;51.388;6.196;2024-03-02T14:05:10;5.03;;;0.90;;
14040;SDS011;7095;51.388;6.196;2024-03-02T14:07:41;4.57;;;1.30;;
14040;SDS011;7095;51.388;6.196;2024-03-02T14:10:10;5.33;;;1.20;;
14040;SDS011;7095;51.388;6.196;2024-03-02T14:12:43;6.47;;;1.57;;
14040;SDS011;7095;51.388;6.196;2024-03-02T14:15:13;3.80;;;1.20;;
14040;SDS011;7095;51.388;6.196;2024-03-02T14:17:44;7.97;;;1.40;;
14040;SDS011;7095;51.388;6.196;2024-03-02T14:20:13;6.07;;;1.60;;
14040;SDS011;7095;51.388;6.196;2024-03-02T14:22:47;4.07;;;1.30;;
14040;SDS011;7095;51.388;6.196;2024-03-02T14:25:17;5.00;;;0.90;;
14040;SDS011;7095;51.388;6.196;2024-03-02T14:27:46;3.63;;;0.90;;
14040;SDS011;7095;51.388;6.196;2024-03-02T14:30:37;3.80;;;1.00;;
14040;SDS011;7095;51.388;6.196;2024-03-02T14:33:06;6.07;;;1.33;;
14040;SDS011;7095;51.388;6.196;2024-03-02T14:35:35;3.13;;;1.43;;
14040;SDS011;7095;51.388;6.196;2024-03-02T14:38:04;6.37;;;1.20;;
14040;SDS011;7095;51.388;6.196;2024-03-02T14:40:33;1.90;;;0.93;;
14040;SDS011;7095;51.388;6.196;2024-03-02T14:43:03;3.90;;;1.30;;
14040;SDS011;7095;51.388;6.196;2024-03-02T14:45:32;5.50;;;1.20;;
14040;SDS011;7095;51.388;6.196;2024-03-02T14:48:03;2.37;;;1.40;;
14040;SDS011;7095;51.388;6.196;2024-03-02T14:50:33;3.70;;;1.43;;
14040;SDS011;7095;51.388;6.196;2024-03-02T14:53:02;3.27;;;1.07;;
14040;SDS011;7095;51.388;6.196;2024-03-02T14:55:34;2.77;;;1.23;;
14040;SDS011;7095;51.388;6.196;2024-03-02T14:58:04;2.30;;;0.97;;
14040;SDS011;7095;51.388;6.196;2024-03-02T15:00:35;2.40;;;0.97;;
14040;SDS011;7095;51.388;6.196;2024-03-02T15:03:05;1.50;;;0.93;;
14040;SDS011;7095;51.388;6.196;2024-03-02T15:05:35;0.80;;;0.80;;
14040;SDS011;7095;51.388;6.196;2024-03-02T15:08:04;4.90;;;1.00;;
14040;SDS011;7095;51.388;6.196;2024-03-02T15:10:35;7.70;;;1.43;;
14040;SDS011;7095;51.388;6.196;2024-03-02T15:13:04;3.40;;;1.00;;
14040;SDS011;7095;51.388;6.196;2024-03-02T15:15:33;1.53;;;1.17;;
14040;SDS011;7095;51.388;6.196;2024-03-02T15:18:02;3.13;;;1.30;;
14040;SDS011;7095;51.388;6.196;2024-03-02T15:20:34;1.37;;;1.20;;
14040;SDS011;7095;51.388;6.196;2024-03-02T15:23:03;4.83;;;1.27;;
14040;SDS011;7095;51.388;6.196;2024-03-02T15:25:32;3.67;;;1.20;;